sensor_id;sensor_type;location;lat;lon;timestamp;pressure;altitude;pressure_sealevel;temperature;humidity
15817;BME280;8009;50.070;8.232;2023-08-06T00:01:09;99041.63;;;18.92;65.73
15817;BME280;8009;50.070;8.232;2023-08-06T00:03:38;99030.97;;;19.19;65.45
15817;BME280;8009;50.070;8.232;2023-08-06T00:06:06;99026.75;;;19.16;66.11
15817;BME280;8009;50.070;8.232;2023-08-06T00:08:37;99025.63;;;19.11;65.48
15817;BME280;8009;50.070;8.232;2023-08-06T00:11:05;99023.03;;;19.24;65.09
15817;BME280;8009;50.070;8.232;2023-08-06T00:13:34;99018.94;;;19.13;64.95
15817;BME280;8009;50.070;8.232;2023-08-06T00:16:09;99026.53;;;19.18;65.54
15817;BME280;8009;50.070;8.232;2023-08-06T00:18:38;99007.13;;;19.34;65.38
15817;BME280;8009;50.070;8.232;2023-08-06T00:21:07;99008.50;;;19.23;65.56
15817;BME280;8009;50.070;8.232;2023-08-06T00:23:40;99009.50;;;19.16;65.19
15817;BME280;8009;50.070;8.232;2023-08-06T00:26:08;99000.69;;;19.20;65.35
15817;BME280;8009;50.070;8.232;2023-08-06T00:28:37;98995.81;;;19.16;64.39
15817;BME280;8009;50.070;8.232;2023-08-06T00:31:05;98986.63;;;19.23;65.11
15817;BME280;8009;50.070;8.232;2023-08-06T00:33:33;98988.94;;;19.27;64.41
15817;BME280;8009;50.070;8.232;2023-08-06T00:36:02;98988.63;;;19.15;64.06
15817;BME280;8009;50.070;8.232;2023-08-06T00:38:30;98984.13;;;19.29;63.89
15817;BME280;8009;50.070;8.232;2023-08-06T00:41:01;98985.88;;;19.15;63.95
15817;BME280;8009;50.070;8.232;2023-08-06T00:43:29;98978.81;;;19.20;64.24
15817;BME280;8009;50.070;8.232;2023-08-06T00:45:58;98984.94;;;19.01;64.73
15817;BME280;8009;50.070;8.232;2023-08-06T00:48:26;98974.31;;;19.13;63.87
15817;BME280;8009;50.070;8.232;2023-08-06T00:50:55;98968.31;;;19.24;63.59
15817;BME280;8009;50.070;8.232;2023-08-06T00:53:23;98965.06;;;19.42;63.78
15817;BME280;8009;50.070;8.232;2023-08-06T00:55:52;98963.69;;;19.24;63.00
15817;BME280;8009;50.070;8.232;2023-08-06T00:58:22;98959.56;;;19.14;63.44
15817;BME280;8009;50.070;8.232;2023-08-06T01:00:51;98965.25;;;19.12;64.92
15817;BME280;8009;50.070;8.232;2023-08-06T01:03:19;98958.84;;;19.27;63.56
15817;BME280;8009;50.070;8.232;2023-08-06T01:05:48;98959.34;;;19.37;63.91
15817;BME280;8009;50.070;8.232;2023-08-06T01:08:25;98957.84;;;19.34;64.45
15817;BME280;8009;50.070;8.232;2023-08-06T01:11:05;98945.81;;;19.29;64.00
15817;BME280;8009;50.070;8.232;2023-08-06T01:13:42;98943.16;;;19.35;63.09
15817;BME280;8009;50.070;8.232;2023-08-06T01:16:15;98937.00;;;19.33;62.95
15817;BME280;8009;50.070;8.232;2023-08-06T01:18:43;98937.84;;;19.34;63.37
15817;BME280;8009;50.070;8.232;2023-08-06T01:21:15;98937.47;;;19.15;63.88
15817;BME280;8009;50.070;8.232;2023-08-06T01:23:43;98938.81;;;19.19;64.83
15817;BME280;8009;50.070;8.232;2023-08-06T01:26:15;98933.81;;;19.30;64.76
15817;BME280;8009;50.070;8.232;2023-08-06T01:28:51;98938.53;;;19.14;65.95
15817;BME280;8009;50.070;8.232;2023-08-06T01:31:22;98936.75;;;19.28;65.43
15817;BME280;8009;50.070;8.232;2023-08-06T01:33:53;98941.72;;;19.18;66.84
15817;BME280;8009;50.070;8.232;2023-08-06T01:36:24;98938.06;;;19.11;68.49
15817;BME280;8009;50.070;8.232;2023-08-06T01:38:53;98936.47;;;18.95;68.40
15817;BME280;8009;50.070;8.232;2023-08-06T01:41:22;98946.94;;;19.13;67.94
15817;BME280;8009;50.070;8.232;2023-08-06T01:43:51;98931.78;;;18.89;67.98
15817;BME280;8009;50.070;8.232;2023-08-06T01:46:19;98935.94;;;18.85;70.52
15817;BME280;8009;50.070;8.232;2023-08-06T01:48:48;98938.66;;;18.85;70.04
15817;BME280;8009;50.070;8.232;2023-08-06T01:51:16;98939.56;;;18.92;68.94
15817;BME280;8009;50.070;8.232;2023-08-06T01:53:47;98944.94;;;18.79;70.03
15817;BME280;8009;50.070;8.232;2023-08-06T01:56:15;98926.19;;;18.97;68.24
15817;BME280;8009;50.070;8.232;2023-08-06T01:58:44;98938.41;;;18.80;68.55
15817;BME280;8009;50.070;8.232;2023-08-06T02:01:12;98946.91;;;18.70;69.19
15817;BME280;8009;50.070;8.232;2023-08-06T02:03:40;98933.53;;;18.96;69.08
15817;BME280;8009;50.070;8.232;2023-08-06T02:06:09;98938.81;;;18.98;68.88
15817;BME280;8009;50.070;8.232;2023-08-06T02:08:37;98927.84;;;18.77;68.95
15817;BME280;8009;50.070;8.232;2023-08-06T02:11:08;98921.47;;;18.91;68.86
15817;BME280;8009;50.070;8.232;2023-08-06T02:13:36;98923.38;;;18.90;68.75
15817;BME280;8009;50.070;8.232;2023-08-06T02:16:06;98923.00;;;18.57;70.04
15817;BME280;8009;50.070;8.232;2023-08-06T02:18:35;98914.03;;;18.63;70.35
15817;BME280;8009;50.070;8.232;2023-08-06T02:21:03;98904.25;;;18.54;70.86
15817;BME280;8009;50.070;8.232;2023-08-06T02:23:32;98904.19;;;18.69;69.39
15817;BME280;8009;50.070;8.232;2023-08-06T02:26:00;98911.31;;;18.85;68.38
15817;BME280;8009;50.070;8.232;2023-08-06T02:28:32;98906.72;;;18.85;69.23
15817;BME280;8009;50.070;8.232;2023-08-06T02:31:00;98907.69;;;18.78;69.58
15817;BME280;8009;50.070;8.232;2023-08-06T02:33:28;98898.97;;;18.89;69.76
15817;BME280;8009;50.070;8.232;2023-08-06T02:36:00;98895.56;;;18.87;70.33
15817;BME280;8009;50.070;8.232;2023-08-06T02:38:29;98895.63;;;18.72;70.94
15817;BME280;8009;50.070;8.232;2023-08-06T02:40:57;98892.59;;;18.82;69.97
15817;BME280;8009;50.070;8.232;2023-08-06T02:43:26;98883.25;;;18.76;70.33
15817;BME280;8009;50.070;8.232;2023-08-06T02:45:59;98885.69;;;18.49;71.55
15817;BME280;8009;50.070;8.232;2023-08-06T02:48:28;98875.28;;;18.74;70.60
15817;BME280;8009;50.070;8.232;2023-08-06T02:50:59;98876.00;;;18.68;71.62
15817;BME280;8009;50.070;8.232;2023-08-06T02:53:28;98867.56;;;18.63;71.14
15817;BME280;8009;50.070;8.232;2023-08-06T02:55:57;98869.34;;;18.71;71.24
15817;BME280;8009;50.070;8.232;2023-08-06T02:58:25;98862.16;;;18.48;71.00
15817;BME280;8009;50.070;8.232;2023-08-06T03:01:03;98867.03;;;18.53;70.06
15817;BME280;8009;50.070;8.232;2023-08-06T03:03:32;98864.94;;;18.55;68.09
15817;BME280;8009;50.070;8.232;2023-08-06T03:06:01;98864.75;;;18.57;68.79
15817;BME280;8009;50.070;8.232;2023-08-06T03:08:29;98859.09;;;18.37;68.42
15817;BME280;8009;50.070;8.232;2023-08-06T03:10:58;98858.22;;;18.58;67.51
15817;BME280;8009;50.070;8.232;2023-08-06T03:13:26;98856.81;;;18.40;69.48
15817;BME280;8009;50.070;8.232;2023-08-06T03:15:56;98848.47;;;18.48;69.29
15817;BME280;8009;50.070;8.232;2023-08-06T03:18:28;98849.41;;;18.56;67.63
15817;BME280;8009;50.070;8.232;2023-08-06T03:20:57;98852.41;;;18.82;67.07
15817;BME280;8009;50.070;8.232;2023-08-06T03:23:25;98847.53;;;18.78;67.46
15817;BME280;8009;50.070;8.232;2023-08-06T03:25:53;98849.22;;;18.79;68.06
15817;BME280;8009;50.070;8.232;2023-08-06T03:28:21;98847.78;;;18.83;67.66
15817;BME280;8009;50.070;8.232;2023-08-06T03:30:58;98848.13;;;18.58;68.73
15817;BME280;8009;50.070;8.232;2023-08-06T03:33:30;98845.44;;;18.80;68.96
15817;BME280;8009;50.070;8.232;2023-08-06T03:35:58;98845.38;;;18.73;68.51
15817;BME280;8009;50.070;8.232;2023-08-06T03:38:26;98842.00;;;18.71;69.26
15817;BME280;8009;50.070;8.232;2023-08-06T03:40:55;98839.22;;;18.49;69.75
15817;BME280;8009;50.070;8.232;2023-08-06T03:43:23;98832.53;;;18.52;69.52
15817;BME280;8009;50.070;8.232;2023-08-06T03:45:51;98839.63;;;18.68;68.40
15817;BME280;8009;50.070;8.232;2023-08-06T03:48:20;98828.94;;;18.30;69.97
15817;BME280;8009;50.070;8.232;2023-08-06T03:50:51;98831.84;;;18.43;69.43
15817;BME280;8009;50.070;8.232;2023-08-06T03:53:19;98829.09;;;18.43;69.49
15817;BME280;8009;50.070;8.232;2023-08-06T03:55:47;98838.00;;;18.52;69.96
15817;BME280;8009;50.070;8.232;2023-08-06T03:58:16;98834.03;;;18.55;69.63
15817;BME280;8009;50.070;8.232;2023-08-06T04:00:44;98833.38;;;18.52;70.58
15817;BME280;8009;50.070;8.232;2023-08-06T04:03:12;98836.88;;;18.46;71.70
15817;BME280;8009;50.070;8.232;2023-08-06T04:05:40;98834.34;;;18.23;73.07
15817;BME280;8009;50.070;8.232;2023-08-06T04:08:11;98844.19;;;18.03;73.58
15817;BME280;8009;50.070;8.232;2023-08-06T04:10:40;98845.00;;;17.82;73.85
15817;BME280;8009;50.070;8.232;2023-08-06T04:13:08;98843.28;;;17.81;74.63
15817;BME280;8009;50.070;8.232;2023-08-06T04:15:36;98849.03;;;17.42;75.04
15817;BME280;8009;50.070;8.232;2023-08-06T04:18:04;98841.97;;;17.47;75.15
15817;BME280;8009;50.070;8.232;2023-08-06T04:20:33;98841.81;;;17.78;74.10
15817;BME280;8009;50.070;8.232;2023-08-06T04:23:06;98835.53;;;17.99;74.32
15817;BME280;8009;50.070;8.232;2023-08-06T04:25:37;98836.97;;;17.66;74.96
15817;BME280;8009;50.070;8.232;2023-08-06T04:28:05;98828.88;;;17.58;75.83
15817;BME280;8009;50.070;8.232;2023-08-06T04:30:33;98832.66;;;17.57;75.94
15817;BME280;8009;50.070;8.232;2023-08-06T04:33:02;98841.22;;;17.83;75.42
15817;BME280;8009;50.070;8.232;2023-08-06T04:35:30;98840.94;;;17.78;74.65
15817;BME280;8009;50.070;8.232;2023-08-06T04:37:58;98838.50;;;17.83;74.73
15817;BME280;8009;50.070;8.232;2023-08-06T04:40:27;98833.31;;;17.88;75.85
15817;BME280;8009;50.070;8.232;2023-08-06T04:43:02;98840.75;;;17.80;76.25
15817;BME280;8009;50.070;8.232;2023-08-06T05:01:28;98834.06;;;17.67;75.09
15817;BME280;8009;50.070;8.232;2023-08-06T05:03:56;98824.38;;;17.65;75.62
15817;BME280;8009;50.070;8.232;2023-08-06T05:06:36;98830.50;;;17.22;77.51
15817;BME280;8009;50.070;8.232;2023-08-06T05:09:35;98841.59;;;17.50;75.87
15817;BME280;8009;50.070;8.232;2023-08-06T05:12:04;98834.53;;;17.71;75.05
15817;BME280;8009;50.070;8.232;2023-08-06T05:14:33;98830.69;;;17.80;76.14
15817;BME280;8009;50.070;8.232;2023-08-06T05:17:14;98836.44;;;17.56;75.99
15817;BME280;8009;50.070;8.232;2023-08-06T05:19:42;98830.41;;;17.60;77.69
15817;BME280;8009;50.070;8.232;2023-08-06T06:03:35;98830.75;;;17.27;78.27
15817;BME280;8009;50.070;8.232;2023-08-06T06:06:17;98842.19;;;16.93;80.26
15817;BME280;8009;50.070;8.232;2023-08-06T06:08:45;98831.66;;;16.90;79.48
15817;BME280;8009;50.070;8.232;2023-08-06T06:11:14;98836.31;;;17.19;78.82
15817;BME280;8009;50.070;8.232;2023-08-06T06:13:44;98842.34;;;17.15;79.15
15817;BME280;8009;50.070;8.232;2023-08-06T06:16:13;98836.84;;;17.00;79.14
15817;BME280;8009;50.070;8.232;2023-08-06T06:18:44;98842.13;;;17.16;78.90
15817;BME280;8009;50.070;8.232;2023-08-06T06:26:45;98833.88;;;17.39;79.01
15817;BME280;8009;50.070;8.232;2023-08-06T06:29:14;98842.34;;;17.29;79.62
15817;BME280;8009;50.070;8.232;2023-08-06T06:31:42;98842.34;;;17.29;79.62
15817;BME280;8009;50.070;8.232;2023-08-06T06:34:13;98840.38;;;17.38;79.61
15817;BME280;8009;50.070;8.232;2023-08-06T06:36:41;98841.41;;;17.37;79.06
15817;BME280;8009;50.070;8.232;2023-08-06T06:39:09;98850.81;;;17.35;78.73
15817;BME280;8009;50.070;8.232;2023-08-06T06:41:38;98844.31;;;17.06;80.90
15817;BME280;8009;50.070;8.232;2023-08-06T06:44:06;98852.22;;;17.30;79.17
15817;BME280;8009;50.070;8.232;2023-08-06T06:46:34;98849.97;;;17.19;80.35
15817;BME280;8009;50.070;8.232;2023-08-06T06:49:02;98850.16;;;17.18;78.97
15817;BME280;8009;50.070;8.232;2023-08-06T06:51:33;98844.84;;;16.87;81.57
15817;BME280;8009;50.070;8.232;2023-08-06T06:54:02;98853.13;;;17.08;79.94
15817;BME280;8009;50.070;8.232;2023-08-06T06:56:30;98849.81;;;16.98;80.82
15817;BME280;8009;50.070;8.232;2023-08-06T06:58:58;98851.38;;;17.30;79.58
15817;BME280;8009;50.070;8.232;2023-08-06T07:01:26;98849.59;;;17.22;81.51
15817;BME280;8009;50.070;8.232;2023-08-06T07:03:55;98851.19;;;17.32;80.02
15817;BME280;8009;50.070;8.232;2023-08-06T07:06:23;98853.09;;;16.93;82.59
15817;BME280;8009;50.070;8.232;2023-08-06T07:08:54;98860.28;;;17.09;80.03
15817;BME280;8009;50.070;8.232;2023-08-06T07:11:22;98856.63;;;17.32;79.73
15817;BME280;8009;50.070;8.232;2023-08-06T07:13:56;98857.09;;;17.20;79.16
15817;BME280;8009;50.070;8.232;2023-08-06T07:16:25;98855.97;;;17.15;80.45
15817;BME280;8009;50.070;8.232;2023-08-06T07:18:54;98849.31;;;17.17;82.70
15817;BME280;8009;50.070;8.232;2023-08-06T07:21:23;98851.47;;;17.22;82.00
15817;BME280;8009;50.070;8.232;2023-08-06T07:23:54;98862.19;;;17.23;80.74
15817;BME280;8009;50.070;8.232;2023-08-06T07:26:22;98852.50;;;17.06;81.25
15817;BME280;8009;50.070;8.232;2023-08-06T07:28:50;98856.53;;;17.40;79.96
15817;BME280;8009;50.070;8.232;2023-08-06T07:31:19;98861.34;;;17.38;79.69
15817;BME280;8009;50.070;8.232;2023-08-06T07:33:47;98852.72;;;17.49;79.39
15817;BME280;8009;50.070;8.232;2023-08-06T07:36:15;98861.06;;;17.62;78.88
15817;BME280;8009;50.070;8.232;2023-08-06T07:38:43;98857.22;;;17.57;79.67
15817;BME280;8009;50.070;8.232;2023-08-06T07:41:16;98866.25;;;17.57;80.08
15817;BME280;8009;50.070;8.232;2023-08-06T07:43:44;98859.22;;;17.48;79.64
15817;BME280;8009;50.070;8.232;2023-08-06T07:46:14;98855.34;;;17.72;80.35
15817;BME280;8009;50.070;8.232;2023-08-06T07:48:43;98856.28;;;17.64;80.12
15817;BME280;8009;50.070;8.232;2023-08-06T07:51:11;98850.16;;;17.47;80.38
15817;BME280;8009;50.070;8.232;2023-08-06T07:53:39;98861.63;;;17.43;80.77
15817;BME280;8009;50.070;8.232;2023-08-06T07:56:08;98851.09;;;17.40;80.56
15817;BME280;8009;50.070;8.232;2023-08-06T07:58:39;98855.34;;;17.72;79.78
15817;BME280;8009;50.070;8.232;2023-08-06T08:01:07;98849.69;;;17.88;78.07
15817;BME280;8009;50.070;8.232;2023-08-06T08:03:35;98850.72;;;17.58;80.01
15817;BME280;8009;50.070;8.232;2023-08-06T08:06:03;98857.13;;;17.65;79.14
15817;BME280;8009;50.070;8.232;2023-08-06T08:08:32;98850.53;;;17.29;80.37
15817;BME280;8009;50.070;8.232;2023-08-06T08:11:03;98853.47;;;17.87;79.00
15817;BME280;8009;50.070;8.232;2023-08-06T08:13:32;98841.97;;;17.47;81.24
15817;BME280;8009;50.070;8.232;2023-08-06T08:16:03;98844.63;;;17.56;81.67
15817;BME280;8009;50.070;8.232;2023-08-06T08:18:32;98847.00;;;18.10;78.39
15817;BME280;8009;50.070;8.232;2023-08-06T08:21:00;98840.78;;;18.73;77.11
15817;BME280;8009;50.070;8.232;2023-08-06T08:23:28;98832.09;;;18.48;78.91
15817;BME280;8009;50.070;8.232;2023-08-06T08:25:57;98826.16;;;18.66;75.73
15817;BME280;8009;50.070;8.232;2023-08-06T08:28:27;98834.16;;;18.25;77.28
15817;BME280;8009;50.070;8.232;2023-08-06T08:30:55;98827.56;;;17.68;76.98
15817;BME280;8009;50.070;8.232;2023-08-06T08:33:26;98834.56;;;18.07;78.30
15817;BME280;8009;50.070;8.232;2023-08-06T08:42:28;98818.34;;;18.63;74.01
15817;BME280;8009;50.070;8.232;2023-08-06T08:44:57;98828.78;;;17.95;75.45
15817;BME280;8009;50.070;8.232;2023-08-06T08:47:25;98818.13;;;18.65;74.59
15817;BME280;8009;50.070;8.232;2023-08-06T08:49:57;98816.94;;;18.95;74.09
15817;BME280;8009;50.070;8.232;2023-08-06T08:52:26;98811.72;;;18.72;74.55
15817;BME280;8009;50.070;8.232;2023-08-06T08:55:30;98820.50;;;18.89;74.87
15817;BME280;8009;50.070;8.232;2023-08-06T08:57:59;98818.06;;;18.15;74.10
15817;BME280;8009;50.070;8.232;2023-08-06T09:00:28;98819.03;;;18.08;73.88
15817;BME280;8009;50.070;8.232;2023-08-06T09:02:58;98815.53;;;18.57;73.27
15817;BME280;8009;50.070;8.232;2023-08-06T09:05:29;98814.91;;;18.76;73.91
15817;BME280;8009;50.070;8.232;2023-08-06T09:08:02;98814.94;;;18.61;74.63
15817;BME280;8009;50.070;8.232;2023-08-06T09:10:31;98817.03;;;18.38;75.07
15817;BME280;8009;50.070;8.232;2023-08-06T09:13:02;98810.94;;;18.79;74.93
15817;BME280;8009;50.070;8.232;2023-08-06T09:15:32;98806.75;;;18.83;74.68
15817;BME280;8009;50.070;8.232;2023-08-06T09:18:09;98805.78;;;19.60;74.19
15817;BME280;8009;50.070;8.232;2023-08-06T09:20:40;98811.22;;;19.53;69.97
15817;BME280;8009;50.070;8.232;2023-08-06T09:23:09;98805.84;;;20.21;70.56
15817;BME280;8009;50.070;8.232;2023-08-06T09:25:39;98806.25;;;19.63;69.42
15817;BME280;8009;50.070;8.232;2023-08-06T09:28:11;98802.22;;;19.24;70.26
15817;BME280;8009;50.070;8.232;2023-08-06T09:30:39;98816.44;;;18.64;72.74
15817;BME280;8009;50.070;8.232;2023-08-06T09:33:11;98816.72;;;18.47;73.06
15817;BME280;8009;50.070;8.232;2023-08-06T09:35:45;98829.63;;;17.96;76.75
15817;BME280;8009;50.070;8.232;2023-08-06T09:38:14;98833.59;;;17.93;75.67
15817;BME280;8009;50.070;8.232;2023-08-06T09:40:45;98828.50;;;17.90;78.57
15817;BME280;8009;50.070;8.232;2023-08-06T09:43:14;98840.00;;;17.56;80.29
15817;BME280;8009;50.070;8.232;2023-08-06T09:45:43;98837.31;;;18.07;79.54
15817;BME280;8009;50.070;8.232;2023-08-06T09:48:11;98833.38;;;18.31;77.47
15817;BME280;8009;50.070;8.232;2023-08-06T09:50:42;98841.78;;;17.49;81.40
15817;BME280;8009;50.070;8.232;2023-08-06T09:53:13;98834.63;;;17.77;81.30
15817;BME280;8009;50.070;8.232;2023-08-06T09:55:41;98835.75;;;17.39;84.79
15817;BME280;8009;50.070;8.232;2023-08-06T09:58:10;98833.81;;;17.33;83.65
15817;BME280;8009;50.070;8.232;2023-08-06T10:00:40;98829.16;;;17.63;81.10
15817;BME280;8009;50.070;8.232;2023-08-06T10:03:09;98827.69;;;17.75;81.93
15817;BME280;8009;50.070;8.232;2023-08-06T10:05:46;98828.88;;;17.58;82.18
15817;BME280;8009;50.070;8.232;2023-08-06T10:08:15;98822.06;;;18.13;81.66
15817;BME280;8009;50.070;8.232;2023-08-06T10:10:44;98811.63;;;18.66;78.96
15817;BME280;8009;50.070;8.232;2023-08-06T10:13:15;98822.56;;;19.15;80.64
15817;BME280;8009;50.070;8.232;2023-08-06T10:15:44;98825.44;;;18.58;81.15
15817;BME280;8009;50.070;8.232;2023-08-06T10:18:13;98831.56;;;18.38;79.93
15817;BME280;8009;50.070;8.232;2023-08-06T10:20:49;98833.69;;;18.64;78.79
15817;BME280;8009;50.070;8.232;2023-08-06T10:23:53;98827.59;;;18.41;79.39
15817;BME280;8009;50.070;8.232;2023-08-06T10:26:25;98830.97;;;18.64;77.71
15817;BME280;8009;50.070;8.232;2023-08-06T10:28:53;98826.34;;;19.14;77.83
15817;BME280;8009;50.070;8.232;2023-08-06T10:34:20;98815.44;;;20.58;73.26
15817;BME280;8009;50.070;8.232;2023-08-06T10:36:54;98809.31;;;20.89;71.99
15817;BME280;8009;50.070;8.232;2023-08-06T10:39:22;98824.31;;;19.58;75.21
15817;BME280;8009;50.070;8.232;2023-08-06T10:41:51;98839.38;;;18.84;77.68
15817;BME280;8009;50.070;8.232;2023-08-06T10:44:19;98843.34;;;18.60;76.69
15817;BME280;8009;50.070;8.232;2023-08-06T10:46:45;98843.09;;;18.77;75.51
15817;BME280;8009;50.070;8.232;2023-08-06T10:49:21;98839.91;;;18.51;75.89
15817;BME280;8009;50.070;8.232;2023-08-06T10:51:53;98840.78;;;19.02;75.73
15817;BME280;8009;50.070;8.232;2023-08-06T10:54:21;98841.53;;;18.89;76.75
15817;BME280;8009;50.070;8.232;2023-08-06T10:56:50;98840.03;;;19.49;76.70
15817;BME280;8009;50.070;8.232;2023-08-06T10:59:18;98842.47;;;18.38;77.76
15817;BME280;8009;50.070;8.232;2023-08-06T11:01:46;98840.88;;;18.87;78.17
15817;BME280;8009;50.070;8.232;2023-08-06T11:04:15;98846.78;;;18.69;78.01
15817;BME280;8009;50.070;8.232;2023-08-06T11:06:43;98857.34;;;18.72;78.05
15817;BME280;8009;50.070;8.232;2023-08-06T11:09:14;98857.56;;;18.13;79.85
15817;BME280;8009;50.070;8.232;2023-08-06T11:11:43;98869.72;;;18.10;79.19
15817;BME280;8009;50.070;8.232;2023-08-06T11:14:15;98878.47;;;17.46;79.15
15817;BME280;8009;50.070;8.232;2023-08-06T11:16:43;98868.03;;;17.65;78.18
15817;BME280;8009;50.070;8.232;2023-08-06T11:19:11;98884.91;;;17.98;77.08
15817;BME280;8009;50.070;8.232;2023-08-06T11:21:40;98891.84;;;17.41;77.30
15817;BME280;8009;50.070;8.232;2023-08-06T11:24:10;98900.97;;;17.34;78.05
15817;BME280;8009;50.070;8.232;2023-08-06T11:26:41;98920.50;;;17.90;76.49
15817;BME280;8009;50.070;8.232;2023-08-06T11:29:09;98925.78;;;17.76;79.39
15817;BME280;8009;50.070;8.232;2023-08-06T11:31:38;98925.63;;;17.55;79.21
15817;BME280;8009;50.070;8.232;2023-08-06T11:34:06;98939.28;;;17.40;81.48
15817;BME280;8009;50.070;8.232;2023-08-06T11:36:40;98932.75;;;17.26;79.59
15817;BME280;8009;50.070;8.232;2023-08-06T11:39:15;98943.41;;;17.13;80.95
15817;BME280;8009;50.070;8.232;2023-08-06T11:41:47;98948.50;;;17.16;80.59
15817;BME280;8009;50.070;8.232;2023-08-06T11:44:19;98949.03;;;17.35;80.92
15817;BME280;8009;50.070;8.232;2023-08-06T11:46:51;98948.31;;;17.41;79.20
15817;BME280;8009;50.070;8.232;2023-08-06T11:49:37;98955.66;;;17.55;77.88
15817;BME280;8009;50.070;8.232;2023-08-06T11:52:12;98958.03;;;17.20;78.20
15817;BME280;8009;50.070;8.232;2023-08-06T11:54:41;98965.88;;;17.00;80.68
15817;BME280;8009;50.070;8.232;2023-08-06T11:57:13;98968.28;;;17.56;78.30
15817;BME280;8009;50.070;8.232;2023-08-06T11:59:43;98965.81;;;17.46;76.29
15817;BME280;8009;50.070;8.232;2023-08-06T12:02:12;98962.06;;;17.62;76.17
15817;BME280;8009;50.070;8.232;2023-08-06T12:05:01;98980.97;;;17.11;77.19
15817;BME280;8009;50.070;8.232;2023-08-06T12:07:31;98991.03;;;17.11;76.90
15817;BME280;8009;50.070;8.232;2023-08-06T12:10:00;98991.16;;;17.32;76.65
15817;BME280;8009;50.070;8.232;2023-08-06T12:12:31;98996.97;;;17.52;76.06
15817;BME280;8009;50.070;8.232;2023-08-06T12:15:00;99005.38;;;17.27;77.65
15817;BME280;8009;50.070;8.232;2023-08-06T12:17:28;99005.78;;;17.39;74.73
15817;BME280;8009;50.070;8.232;2023-08-06T12:19:57;99014.16;;;17.38;75.42
15817;BME280;8009;50.070;8.232;2023-08-06T12:22:25;99017.50;;;17.25;76.60
15817;BME280;8009;50.070;8.232;2023-08-06T12:24:57;99019.47;;;17.54;75.33
15817;BME280;8009;50.070;8.232;2023-08-06T12:27:25;99018.06;;;17.58;77.32
15817;BME280;8009;50.070;8.232;2023-08-06T12:29:56;99027.38;;;17.03;78.01
15817;BME280;8009;50.070;8.232;2023-08-06T12:32:26;99022.78;;;17.03;77.72
15817;BME280;8009;50.070;8.232;2023-08-06T12:35:02;99022.66;;;17.20;77.90
15817;BME280;8009;50.070;8.232;2023-08-06T12:37:32;99030.41;;;17.69;76.51
15817;BME280;8009;50.070;8.232;2023-08-06T12:40:00;99031.31;;;17.23;77.51
15817;BME280;8009;50.070;8.232;2023-08-06T12:42:29;99030.47;;;17.23;76.23
15817;BME280;8009;50.070;8.232;2023-08-06T12:45:00;99034.38;;;17.28;74.15
15817;BME280;8009;50.070;8.232;2023-08-06T12:47:28;99043.41;;;17.29;77.49
15817;BME280;8009;50.070;8.232;2023-08-06T12:49:56;99043.56;;;17.27;75.45
15817;BME280;8009;50.070;8.232;2023-08-06T12:52:25;99050.38;;;16.77;76.69
15817;BME280;8009;50.070;8.232;2023-08-06T12:54:55;99046.38;;;17.57;73.29
15817;BME280;8009;50.070;8.232;2023-08-06T13:01:01;99066.06;;;17.29;73.84
15817;BME280;8009;50.070;8.232;2023-08-06T13:03:29;99074.25;;;17.29;75.09
15817;BME280;8009;50.070;8.232;2023-08-06T13:05:58;99076.91;;;17.15;74.86
15817;BME280;8009;50.070;8.232;2023-08-06T13:08:26;99074.78;;;17.02;74.28
15817;BME280;8009;50.070;8.232;2023-08-06T13:10:56;99076.78;;;17.54;74.18
15817;BME280;8009;50.070;8.232;2023-08-06T13:13:24;99091.53;;;17.22;75.21
15817;BME280;8009;50.070;8.232;2023-08-06T13:15:52;99095.81;;;17.16;74.16
15817;BME280;8009;50.070;8.232;2023-08-06T13:18:23;99089.56;;;17.30;74.02
15817;BME280;8009;50.070;8.232;2023-08-06T13:20:53;99094.38;;;17.74;72.98
15817;BME280;8009;50.070;8.232;2023-08-06T13:23:22;99111.38;;;16.76;74.14
15817;BME280;8009;50.070;8.232;2023-08-06T13:25:50;99103.91;;;16.62;75.67
15817;BME280;8009;50.070;8.232;2023-08-06T13:28:19;99103.09;;;17.24;74.96
15817;BME280;8009;50.070;8.232;2023-08-06T13:30:47;99102.97;;;17.17;73.03
15817;BME280;8009;50.070;8.232;2023-08-06T13:33:16;99101.91;;;16.95;73.11
15817;BME280;8009;50.070;8.232;2023-08-06T13:35:46;99106.56;;;16.78;72.49
15817;BME280;8009;50.070;8.232;2023-08-06T13:38:16;99103.19;;;17.08;71.49
15817;BME280;8009;50.070;8.232;2023-08-06T13:40:45;99110.16;;;17.41;72.66
15817;BME280;8009;50.070;8.232;2023-08-06T13:43:13;99110.75;;;17.74;70.77
15817;BME280;8009;50.070;8.232;2023-08-06T13:45:44;99110.75;;;17.51;72.02
15817;BME280;8009;50.070;8.232;2023-08-06T13:48:12;99110.75;;;17.74;69.59
15817;BME280;8009;50.070;8.232;2023-08-06T13:50:41;99107.84;;;17.53;70.13
15817;BME280;8009;50.070;8.232;2023-08-06T13:53:12;99100.28;;;18.01;69.74
15817;BME280;8009;50.070;8.232;2023-08-06T13:55:41;99115.91;;;18.07;69.74
15817;BME280;8009;50.070;8.232;2023-08-06T13:58:12;99118.19;;;17.58;71.28
15817;BME280;8009;50.070;8.232;2023-08-06T14:00:40;99122.25;;;17.62;70.99
15817;BME280;8009;50.070;8.232;2023-08-06T14:03:09;99130.28;;;17.63;70.55
15817;BME280;8009;50.070;8.232;2023-08-06T14:05:38;99124.41;;;17.97;70.10
15817;BME280;8009;50.070;8.232;2023-08-06T14:08:10;99124.22;;;17.76;68.88
15817;BME280;8009;50.070;8.232;2023-08-06T14:10:42;99124.00;;;17.54;71.16
15817;BME280;8009;50.070;8.232;2023-08-06T14:13:10;99117.56;;;17.70;69.91
15817;BME280;8009;50.070;8.232;2023-08-06T14:15:38;99118.97;;;17.89;70.74
15817;BME280;8009;50.070;8.232;2023-08-06T14:18:12;99128.06;;;17.36;68.66
15817;BME280;8009;50.070;8.232;2023-08-06T14:20:40;99145.75;;;17.71;67.80
15817;BME280;8009;50.070;8.232;2023-08-06T14:23:11;99130.09;;;17.88;69.67
15817;BME280;8009;50.070;8.232;2023-08-06T14:25:51;99138.84;;;17.83;69.37
15817;BME280;8009;50.070;8.232;2023-08-06T14:28:19;99134.53;;;17.89;68.05
15817;BME280;8009;50.070;8.232;2023-08-06T14:30:47;99147.19;;;18.05;70.17
15817;BME280;8009;50.070;8.232;2023-08-06T14:33:18;99161.66;;;17.67;72.55
15817;BME280;8009;50.070;8.232;2023-08-06T14:35:47;99147.16;;;17.44;72.17
15817;BME280;8009;50.070;8.232;2023-08-06T14:38:21;99160.31;;;17.63;72.60
15817;BME280;8009;50.070;8.232;2023-08-06T14:40:52;99163.69;;;17.65;71.70